sensor_id;sensor_type;location;lat;lon;timestamp;pressure;altitude;pressure_sealevel;temperature;humidity
53526;BME280;40551;50.478;19.378;2022-08-30T00:01:29;98308.30;;;11.92;74.88
53526;BME280;40551;50.478;19.378;2022-08-30T00:04:02;98305.58;;;11.94;74.97
53526;BME280;40551;50.478;19.378;2022-08-30T00:06:36;98305.23;;;11.96;75.01
53526;BME280;40551;50.478;19.378;2022-08-30T00:09:08;98303.77;;;11.98;75.05
53526;BME280;40551;50.478;19.378;2022-08-30T00:11:42;98299.86;;;11.99;75.03
53526;BME280;40551;50.478;19.378;2022-08-30T00:14:13;98303.72;;;11.99;74.95
53526;BME280;40551;50.478;19.378;2022-08-30T00:16:44;98307.02;;;11.97;75.03
53526;BME280;40551;50.478;19.378;2022-08-30T00:19:15;98310.13;;;11.91;75.19
53526;BME280;40551;50.478;19.378;2022-08-30T00:21:47;98313.70;;;11.86;74.90
53526;BME280;40551;50.478;19.378;2022-08-30T00:24:19;98311.08;;;11.82;74.82
53526;BME280;40551;50.478;19.378;2022-08-30T00:26:50;98316.77;;;11.78;74.84
53526;BME280;40551;50.478;19.378;2022-08-30T00:29:25;98320.09;;;11.72;74.95
53526;BME280;40551;50.478;19.378;2022-08-30T00:31:57;98321.83;;;11.66;74.95
53526;BME280;40551;50.478;19.378;2022-08-30T00:34:27;98324.98;;;11.62;75.17
53526;BME280;40551;50.478;19.378;2022-08-30T00:36:59;98329.26;;;11.54;75.34
53526;BME280;40551;50.478;19.378;2022-08-30T00:39:32;98327.22;;;11.51;75.43
53526;BME280;40551;50.478;19.378;2022-08-30T00:42:04;98325.64;;;11.50;75.76
53526;BME280;40551;50.478;19.378;2022-08-30T00:44:36;98324.36;;;11.48;75.65
53526;BME280;40551;50.478;19.378;2022-08-30T00:47:08;98325.17;;;11.49;75.72
53526;BME280;40551;50.478;19.378;2022-08-30T00:49:43;98322.54;;;11.49;75.61
53526;BME280;40551;50.478;19.378;2022-08-30T00:52:17;98323.13;;;11.46;75.67
53526;BME280;40551;50.478;19.378;2022-08-30T00:54:51;98322.90;;;11.45;75.74
53526;BME280;40551;50.478;19.378;2022-08-30T00:57:22;98325.69;;;11.39;75.33
53526;BME280;40551;50.478;19.378;2022-08-30T00:59:54;98324.40;;;11.29;75.20
53526;BME280;40551;50.478;19.378;2022-08-30T01:02:43;98321.19;;;11.15;75.32
53526;BME280;40551;50.478;19.378;2022-08-30T01:05:18;98323.38;;;11.10;75.64
53526;BME280;40551;50.478;19.378;2022-08-30T01:07:50;98323.59;;;11.09;75.93
53526;BME280;40551;50.478;19.378;2022-08-30T01:10:20;98322.75;;;11.11;76.14
53526;BME280;40551;50.478;19.378;2022-08-30T01:12:52;98321.04;;;11.05;75.86
53526;BME280;40551;50.478;19.378;2022-08-30T01:15:24;98322.80;;;11.04;76.08
53526;BME280;40551;50.478;19.378;2022-08-30T01:17:56;98322.92;;;11.07;76.21
53526;BME280;40551;50.478;19.378;2022-08-30T01:20:34;98323.77;;;11.07;76.22
53526;BME280;40551;50.478;19.378;2022-08-30T01:23:10;98323.66;;;11.11;76.23
53526;BME280;40551;50.478;19.378;2022-08-30T01:25:45;98325.33;;;11.12;76.28
53526;BME280;40551;50.478;19.378;2022-08-30T01:28:20;98324.73;;;11.11;76.04
53526;BME280;40551;50.478;19.378;2022-08-30T01:30:53;98322.95;;;11.07;76.35
53526;BME280;40551;50.478;19.378;2022-08-30T01:33:25;98323.70;;;11.06;76.25
53526;BME280;40551;50.478;19.378;2022-08-30T01:35:55;98321.36;;;11.07;76.33
53526;BME280;40551;50.478;19.378;2022-08-30T01:38:29;98319.91;;;11.01;76.25
53526;BME280;40551;50.478;19.378;2022-08-30T01:41:09;98320.23;;;10.98;75.78
53526;BME280;40551;50.478;19.378;2022-08-30T01:43:42;98321.51;;;10.95;76.03
53526;BME280;40551;50.478;19.378;2022-08-30T01:46:18;98319.81;;;10.94;76.12
53526;BME280;40551;50.478;19.378;2022-08-30T01:48:57;98317.67;;;10.95;76.38
53526;BME280;40551;50.478;19.378;2022-08-30T01:51:30;98314.93;;;10.97;76.28
53526;BME280;40551;50.478;19.378;2022-08-30T01:54:02;98315.72;;;11.00;76.31
53526;BME280;40551;50.478;19.378;2022-08-30T01:56:34;98314.60;;;10.99;76.02
53526;BME280;40551;50.478;19.378;2022-08-30T01:59:07;98315.94;;;10.93;75.83
53526;BME280;40551;50.478;19.378;2022-08-30T02:01:39;98314.36;;;10.87;75.72
53526;BME280;40551;50.478;19.378;2022-08-30T02:04:11;98314.65;;;10.79;75.79
53526;BME280;40551;50.478;19.378;2022-08-30T02:06:45;98315.45;;;10.76;76.13
53526;BME280;40551;50.478;19.378;2022-08-30T02:09:17;98315.61;;;10.74;76.40
53526;BME280;40551;50.478;19.378;2022-08-30T02:11:48;98311.95;;;10.74;76.62
53526;BME280;40551;50.478;19.378;2022-08-30T02:14:20;98311.40;;;10.74;76.52
53526;BME280;40551;50.478;19.378;2022-08-30T02:16:50;98308.46;;;10.72;76.39
53526;BME280;40551;50.478;19.378;2022-08-30T02:19:22;98309.90;;;10.65;76.60
53526;BME280;40551;50.478;19.378;2022-08-30T02:21:53;98307.23;;;10.61;76.55
53526;BME280;40551;50.478;19.378;2022-08-30T02:24:28;98303.48;;;10.58;76.59
53526;BME280;40551;50.478;19.378;2022-08-30T02:27:00;98308.45;;;10.53;76.33
53526;BME280;40551;50.478;19.378;2022-08-30T02:29:34;98309.04;;;10.46;76.14
53526;BME280;40551;50.478;19.378;2022-08-30T02:32:06;98304.52;;;10.37;76.27
53526;BME280;40551;50.478;19.378;2022-08-30T02:34:40;98300.68;;;10.28;76.22
53526;BME280;40551;50.478;19.378;2022-08-30T02:37:10;98298.19;;;10.22;76.56
53526;BME280;40551;50.478;19.378;2022-08-30T02:39:42;98295.32;;;10.13;76.58
53526;BME280;40551;50.478;19.378;2022-08-30T02:42:13;98291.23;;;10.09;76.80
53526;BME280;40551;50.478;19.378;2022-08-30T02:44:46;98294.29;;;10.06;76.92
53526;BME280;40551;50.478;19.378;2022-08-30T02:47:16;98289.39;;;10.09;77.44
53526;BME280;40551;50.478;19.378;2022-08-30T02:49:48;98289.10;;;10.08;77.57
53526;BME280;40551;50.478;19.378;2022-08-30T02:52:18;98289.02;;;10.11;77.38
53526;BME280;40551;50.478;19.378;2022-08-30T02:54:57;98291.34;;;10.10;77.65
53526;BME280;40551;50.478;19.378;2022-08-30T02:57:28;98288.33;;;10.11;77.62
53526;BME280;40551;50.478;19.378;2022-08-30T03:00:00;98293.06;;;10.06;77.08
53526;BME280;40551;50.478;19.378;2022-08-30T03:02:32;98297.64;;;9.98;76.88
53526;BME280;40551;50.478;19.378;2022-08-30T03:05:08;98298.38;;;9.93;77.19
53526;BME280;40551;50.478;19.378;2022-08-30T03:07:45;98298.90;;;9.96;77.47
53526;BME280;40551;50.478;19.378;2022-08-30T03:10:17;98304.61;;;10.00;77.59
53526;BME280;40551;50.478;19.378;2022-08-30T03:12:52;98304.20;;;10.03;77.76
53526;BME280;40551;50.478;19.378;2022-08-30T03:15:28;98302.86;;;10.05;77.65
53526;BME280;40551;50.478;19.378;2022-08-30T03:17:58;98306.21;;;10.08;77.89
53526;BME280;40551;50.478;19.378;2022-08-30T03:20:30;98307.24;;;10.06;77.87
53526;BME280;40551;50.478;19.378;2022-08-30T03:23:00;98309.20;;;10.10;77.85
53526;BME280;40551;50.478;19.378;2022-08-30T03:25:32;98309.09;;;10.07;77.74
53526;BME280;40551;50.478;19.378;2022-08-30T03:28:04;98310.60;;;10.10;77.70
53526;BME280;40551;50.478;19.378;2022-08-30T03:30:36;98310.03;;;10.13;77.72
53526;BME280;40551;50.478;19.378;2022-08-30T03:33:07;98310.38;;;10.15;77.63
53526;BME280;40551;50.478;19.378;2022-08-30T03:35:40;98309.61;;;10.14;77.36
53526;BME280;40551;50.478;19.378;2022-08-30T03:38:12;98309.31;;;10.11;77.26
53526;BME280;40551;50.478;19.378;2022-08-30T03:40:43;98308.67;;;10.08;77.38
53526;BME280;40551;50.478;19.378;2022-08-30T03:43:16;98307.77;;;10.04;77.31
53526;BME280;40551;50.478;19.378;2022-08-30T03:45:48;98309.67;;;10.00;77.26
53526;BME280;40551;50.478;19.378;2022-08-30T03:48:21;98317.52;;;9.97;77.30
53526;BME280;40551;50.478;19.378;2022-08-30T03:50:53;98323.29;;;9.94;77.30
53526;BME280;40551;50.478;19.378;2022-08-30T03:53:25;98322.95;;;9.92;77.48
53526;BME280;40551;50.478;19.378;2022-08-30T03:55:55;98323.77;;;9.92;77.64
53526;BME280;40551;50.478;19.378;2022-08-30T03:58:28;98329.08;;;9.89;77.80
53526;BME280;40551;50.478;19.378;2022-08-30T04:00:58;98329.95;;;9.93;77.99
53526;BME280;40551;50.478;19.378;2022-08-30T04:03:29;98330.98;;;9.93;78.04
53526;BME280;40551;50.478;19.378;2022-08-30T04:06:01;98331.13;;;9.95;78.01
53526;BME280;40551;50.478;19.378;2022-08-30T04:08:34;98329.95;;;10.00;77.88
53526;BME280;40551;50.478;19.378;2022-08-30T04:11:04;98329.48;;;10.04;77.99
53526;BME280;40551;50.478;19.378;2022-08-30T04:13:36;98331.07;;;10.03;78.08
53526;BME280;40551;50.478;19.378;2022-08-30T04:16:06;98329.14;;;10.21;78.84
53526;BME280;40551;50.478;19.378;2022-08-30T04:18:38;98327.77;;;10.47;79.18
53526;BME280;40551;50.478;19.378;2022-08-30T04:21:08;98328.19;;;10.89;79.36
53526;BME280;40551;50.478;19.378;2022-08-30T04:23:43;98332.73;;;11.38;79.41
53526;BME280;40551;50.478;19.378;2022-08-30T04:26:16;98336.70;;;11.97;79.25
53526;BME280;40551;50.478;19.378;2022-08-30T04:28:47;98333.27;;;12.57;78.52
53526;BME280;40551;50.478;19.378;2022-08-30T04:31:20;98339.26;;;13.16;77.91
53526;BME280;40551;50.478;19.378;2022-08-30T04:33:52;98344.89;;;13.88;77.39
53526;BME280;40551;50.478;19.378;2022-08-30T04:36:29;98341.08;;;14.63;76.21
53526;BME280;40551;50.478;19.378;2022-08-30T04:39:01;98340.89;;;15.10;74.04
53526;BME280;40551;50.478;19.378;2022-08-30T04:41:34;98344.67;;;15.44;72.83
53526;BME280;40551;50.478;19.378;2022-08-30T04:44:06;98342.86;;;16.03;72.32
53526;BME280;40551;50.478;19.378;2022-08-30T04:46:43;98340.80;;;16.62;71.10
53526;BME280;40551;50.478;19.378;2022-08-30T04:49:15;98342.58;;;17.16;70.51
53526;BME280;40551;50.478;19.378;2022-08-30T04:51:46;98341.02;;;17.79;69.26
53526;BME280;40551;50.478;19.378;2022-08-30T04:54:18;98340.83;;;18.31;68.28
53526;BME280;40551;50.478;19.378;2022-08-30T04:56:50;98340.65;;;18.78;66.67
53526;BME280;40551;50.478;19.378;2022-08-30T04:59:21;98340.42;;;19.17;65.33
53526;BME280;40551;50.478;19.378;2022-08-30T05:01:53;98339.77;;;19.66;64.78
53526;BME280;40551;50.478;19.378;2022-08-30T05:04:24;98342.63;;;20.21;64.00
53526;BME280;40551;50.478;19.378;2022-08-30T05:06:56;98344.75;;;20.70;62.62
53526;BME280;40551;50.478;19.378;2022-08-30T05:09:29;98345.55;;;21.17;61.53
53526;BME280;40551;50.478;19.378;2022-08-30T05:12:03;98346.16;;;21.63;60.57
53526;BME280;40551;50.478;19.378;2022-08-30T05:14:35;98347.79;;;22.10;59.17
53526;BME280;40551;50.478;19.378;2022-08-30T05:17:06;98344.69;;;22.60;58.42
53526;BME280;40551;50.478;19.378;2022-08-30T05:19:38;98343.32;;;23.09;56.85
53526;BME280;40551;50.478;19.378;2022-08-30T05:22:10;98345.23;;;23.49;55.64
53526;BME280;40551;50.478;19.378;2022-08-30T05:24:41;98348.46;;;23.93;54.72
53526;BME280;40551;50.478;19.378;2022-08-30T05:27:13;98350.91;;;24.42;54.37
53526;BME280;40551;50.478;19.378;2022-08-30T05:29:45;98351.30;;;24.83;53.25
53526;BME280;40551;50.478;19.378;2022-08-30T05:32:17;98349.48;;;25.25;52.82
53526;BME280;40551;50.478;19.378;2022-08-30T05:34:50;98362.02;;;25.66;51.73
53526;BME280;40551;50.478;19.378;2022-08-30T05:37:21;98361.40;;;25.81;50.32
53526;BME280;40551;50.478;19.378;2022-08-30T05:39:53;98363.33;;;25.68;49.33
53526;BME280;40551;50.478;19.378;2022-08-30T05:42:25;98365.43;;;25.28;48.60
53526;BME280;40551;50.478;19.378;2022-08-30T05:44:58;98366.30;;;24.76;48.34
53526;BME280;40551;50.478;19.378;2022-08-30T05:47:29;98371.09;;;24.26;48.30
53526;BME280;40551;50.478;19.378;2022-08-30T05:50:01;98372.16;;;23.97;48.95
53526;BME280;40551;50.478;19.378;2022-08-30T05:52:34;98376.42;;;24.19;49.94
53526;BME280;40551;50.478;19.378;2022-08-30T05:55:10;98370.71;;;24.75;50.53
53526;BME280;40551;50.478;19.378;2022-08-30T05:57:42;98370.63;;;25.24;49.86
53526;BME280;40551;50.478;19.378;2022-08-30T06:00:18;98370.77;;;25.58;48.91
53526;BME280;40551;50.478;19.378;2022-08-30T06:02:53;98375.90;;;25.83;47.92
53526;BME280;40551;50.478;19.378;2022-08-30T06:05:25;98375.39;;;26.09;48.08
53526;BME280;40551;50.478;19.378;2022-08-30T06:07:56;98376.18;;;26.47;47.93
53526;BME280;40551;50.478;19.378;2022-08-30T06:10:28;98377.27;;;26.56;46.54
53526;BME280;40551;50.478;19.378;2022-08-30T06:13:01;98380.02;;;26.52;46.23
53526;BME280;40551;50.478;19.378;2022-08-30T06:15:33;98380.67;;;26.53;46.37
53526;BME280;40551;50.478;19.378;2022-08-30T06:18:08;98381.04;;;26.57;46.51
53526;BME280;40551;50.478;19.378;2022-08-30T06:20:41;98376.40;;;27.08;47.51
53526;BME280;40551;50.478;19.378;2022-08-30T06:23:14;98373.60;;;27.62;46.66
53526;BME280;40551;50.478;19.378;2022-08-30T06:25:47;98377.58;;;28.11;46.76
53526;BME280;40551;50.478;19.378;2022-08-30T06:28:19;98379.70;;;28.65;45.91
53526;BME280;40551;50.478;19.378;2022-08-30T06:30:51;98380.45;;;29.10;45.29
53526;BME280;40551;50.478;19.378;2022-08-30T06:33:23;98380.67;;;29.50;44.59
53526;BME280;40551;50.478;19.378;2022-08-30T06:35:55;98381.80;;;29.57;43.29
53526;BME280;40551;50.478;19.378;2022-08-30T06:38:36;98382.31;;;29.55;42.91
53526;BME280;40551;50.478;19.378;2022-08-30T06:41:10;98384.30;;;29.28;42.08
53526;BME280;40551;50.478;19.378;2022-08-30T06:43:42;98390.62;;;28.88;42.07
53526;BME280;40551;50.478;19.378;2022-08-30T06:46:21;98389.14;;;28.86;42.95
53526;BME280;40551;50.478;19.378;2022-08-30T06:48:54;98385.55;;;29.01;43.13
53526;BME280;40551;50.478;19.378;2022-08-30T06:51:29;98382.59;;;29.42;43.39
53526;BME280;40551;50.478;19.378;2022-08-30T06:54:06;98379.89;;;29.61;42.35
53526;BME280;40551;50.478;19.378;2022-08-30T06:56:40;98381.48;;;29.46;42.17
53526;BME280;40551;50.478;19.378;2022-08-30T06:59:28;98384.68;;;29.83;42.18
53526;BME280;40551;50.478;19.378;2022-08-30T07:02:03;98386.83;;;29.91;41.78
53526;BME280;40551;50.478;19.378;2022-08-30T07:04:35;98387.25;;;29.82;41.41
53526;BME280;40551;50.478;19.378;2022-08-30T07:07:10;98391.13;;;29.56;41.25
53526;BME280;40551;50.478;19.378;2022-08-30T07:09:42;98391.08;;;29.14;41.35
53526;BME280;40551;50.478;19.378;2022-08-30T07:12:14;98394.95;;;28.73;41.69
53526;BME280;40551;50.478;19.378;2022-08-30T07:14:46;98394.89;;;28.50;42.34
53526;BME280;40551;50.478;19.378;2022-08-30T07:17:20;98396.89;;;28.13;42.50
53526;BME280;40551;50.478;19.378;2022-08-30T07:20:21;98395.45;;;27.61;42.97
53526;BME280;40551;50.478;19.378;2022-08-30T07:22:53;98398.09;;;27.25;43.75
53526;BME280;40551;50.478;19.378;2022-08-30T07:25:34;98403.18;;;26.93;44.50
53526;BME280;40551;50.478;19.378;2022-08-30T07:28:13;98400.65;;;26.51;44.82
53526;BME280;40551;50.478;19.378;2022-08-30T07:30:44;98403.02;;;26.15;45.40
53526;BME280;40551;50.478;19.378;2022-08-30T07:33:16;98400.34;;;25.92;46.28
53526;BME280;40551;50.478;19.378;2022-08-30T07:35:48;98398.69;;;25.74;46.71
53526;BME280;40551;50.478;19.378;2022-08-30T07:38:20;98396.13;;;25.62;47.76
53526;BME280;40551;50.478;19.378;2022-08-30T07:40:52;98395.52;;;25.43;47.86
53526;BME280;40551;50.478;19.378;2022-08-30T07:43:23;98392.52;;;25.18;48.30
53526;BME280;40551;50.478;19.378;2022-08-30T07:45:56;98393.86;;;24.95;48.55
53526;BME280;40551;50.478;19.378;2022-08-30T07:48:30;98396.89;;;24.73;49.08
53526;BME280;40551;50.478;19.378;2022-08-30T07:51:03;98397.59;;;24.59;49.40
53526;BME280;40551;50.478;19.378;2022-08-30T07:53:39;98392.20;;;24.41;49.85
53526;BME280;40551;50.478;19.378;2022-08-30T07:56:11;98394.54;;;24.24;50.42
53526;BME280;40551;50.478;19.378;2022-08-30T07:58:43;98394.30;;;24.06;50.70
53526;BME280;40551;50.478;19.378;2022-08-30T08:01:18;98394.84;;;23.84;51.03
53526;BME280;40551;50.478;19.378;2022-08-30T08:03:51;98393.05;;;23.63;51.45
53526;BME280;40551;50.478;19.378;2022-08-30T08:06:23;98395.86;;;23.39;51.73
53526;BME280;40551;50.478;19.378;2022-08-30T08:09:02;98400.09;;;23.18;52.32
53526;BME280;40551;50.478;19.378;2022-08-30T08:11:35;98404.70;;;23.05;53.05
53526;BME280;40551;50.478;19.378;2022-08-30T08:14:07;98405.34;;;22.90;53.50
53526;BME280;40551;50.478;19.378;2022-08-30T08:16:41;98406.40;;;22.75;53.89
53526;BME280;40551;50.478;19.378;2022-08-30T08:19:14;98409.96;;;22.57;53.98
53526;BME280;40551;50.478;19.378;2022-08-30T08:21:46;98416.04;;;22.39;54.38
53526;BME280;40551;50.478;19.378;2022-08-30T08:24:34;98419.42;;;22.23;55.02
53526;BME280;40551;50.478;19.378;2022-08-30T08:27:06;98417.09;;;22.15;55.54
53526;BME280;40551;50.478;19.378;2022-08-30T08:29:38;98417.30;;;22.09;55.71
53526;BME280;40551;50.478;19.378;2022-08-30T08:32:09;98422.80;;;21.98;55.71
53526;BME280;40551;50.478;19.378;2022-08-30T08:34:41;98421.04;;;21.78;55.97
53526;BME280;40551;50.478;19.378;2022-08-30T08:37:12;98424.48;;;21.65;56.76
53526;BME280;40551;50.478;19.378;2022-08-30T08:39:49;98421.69;;;21.61;57.65
53526;BME280;40551;50.478;19.378;2022-08-30T08:42:27;98425.96;;;21.56;57.78
53526;BME280;40551;50.478;19.378;2022-08-30T08:45:12;98425.58;;;21.53;58.20
53526;BME280;40551;50.478;19.378;2022-08-30T08:47:53;98423.44;;;21.55;58.51
53526;BME280;40551;50.478;19.378;2022-08-30T08:50:48;98420.99;;;21.55;58.69
53526;BME280;40551;50.478;19.378;2022-08-30T08:53:35;98422.80;;;21.53;58.78
53526;BME280;40551;50.478;19.378;2022-08-30T08:56:17;98423.29;;;21.57;59.08
53526;BME280;40551;50.478;19.378;2022-08-30T08:58:54;98423.45;;;21.66;58.92
53526;BME280;40551;50.478;19.378;2022-08-30T09:01:28;98417.83;;;21.71;58.55
53526;BME280;40551;50.478;19.378;2022-08-30T09:04:05;98422.95;;;21.73;58.47
53526;BME280;40551;50.478;19.378;2022-08-30T09:06:51;98420.55;;;21.77;58.62
53526;BME280;40551;50.478;19.378;2022-08-30T09:09:26;98418.65;;;21.80;58.59
53526;BME280;40551;50.478;19.378;2022-08-30T09:12:00;98418.40;;;21.85;58.90
53526;BME280;40551;50.478;19.378;2022-08-30T09:14:35;98415.59;;;21.85;58.64
53526;BME280;40551;50.478;19.378;2022-08-30T09:17:20;98416.79;;;21.81;58.54
53526;BME280;40551;50.478;19.378;2022-08-30T09:19:59;98418.93;;;21.85;58.82
53526;BME280;40551;50.478;19.378;2022-08-30T09:22:37;98412.90;;;21.99;59.21
53526;BME280;40551;50.478;19.378;2022-08-30T09:25:20;98417.50;;;22.10;59.57
53526;BME280;40551;50.478;19.378;2022-08-30T09:27:54;98414.95;;;22.18;58.75
53526;BME280;40551;50.478;19.378;2022-08-30T09:30:40;98411.33;;;22.23;58.24
53526;BME280;40551;50.478;19.378;2022-08-30T09:33:27;98412.45;;;22.31;58.07
53526;BME280;40551;50.478;19.378;2022-08-30T09:36:11;98412.33;;;22.38;58.27
53526;BME280;40551;50.478;19.378;2022-08-30T09:38:44;98412.33;;;22.47;58.16
53526;BME280;40551;50.478;19.378;2022-08-30T09:41:35;98411.81;;;22.51;57.84
53526;BME280;40551;50.478;19.378;2022-08-30T09:44:10;98422.15;;;22.43;57.67
53526;BME280;40551;50.478;19.378;2022-08-30T09:46:49;98421.35;;;22.38;57.82
53526;BME280;40551;50.478;19.378;2022-08-30T09:49:34;98420.55;;;22.34;57.92
53526;BME280;40551;50.478;19.378;2022-08-30T09:52:14;98415.15;;;22.32;58.24
53526;BME280;40551;50.478;19.378;2022-08-30T09:55:02;98414.52;;;22.27;57.68
53526;BME280;40551;50.478;19.378;2022-08-30T09:57:47;98416.53;;;22.29;58.38
53526;BME280;40551;50.478;19.378;2022-08-30T10:00:24;98421.14;;;22.30;57.76
53526;BME280;40551;50.478;19.378;2022-08-30T10:03:14;98415.98;;;22.14;57.40
53526;BME280;40551;50.478;19.378;2022-08-30T10:06:17;98412.48;;;21.97;57.71
53526;BME280;40551;50.478;19.378;2022-08-30T10:09:05;98412.59;;;21.82;57.80
53526;BME280;40551;50.478;19.378;2022-08-30T10:11:47;98409.21;;;21.77;58.46
53526;BME280;40551;50.478;19.378;2022-08-30T10:14:47;98410.73;;;21.77;59.33
53526;BME280;40551;50.478;19.378;2022-08-30T10:17:33;98404.19;;;21.82;59.67
53526;BME280;40551;50.478;19.378;2022-08-30T10:20:18;98402.27;;;21.87;59.53
53526;BME280;40551;50.478;19.378;2022-08-30T10:22:57;98404.01;;;21.95;59.81
53526;BME280;40551;50.478;19.378;2022-08-30T10:25:33;98404.66;;;22.16;60.15
53526;BME280;40551;50.478;19.378;2022-08-30T10:28:10;98400.64;;;22.39;59.07
53526;BME280;40551;50.478;19.378;2022-08-30T10:30:46;98393.92;;;22.54;58.65
53526;BME280;40551;50.478;19.378;2022-08-30T10:33:23;98389.80;;;22.69;58.24
53526;BME280;40551;50.478;19.378;2022-08-30T10:36:03;98385.34;;;22.75;57.89
53526;BME280;40551;50.478;19.378;2022-08-30T10:38:56;98383.05;;;22.72;57.54
53526;BME280;40551;50.478;19.378;2022-08-30T10:41:37;98388.45;;;22.67;57.24
53526;BME280;40551;50.478;19.378;2022-08-30T10:44:14;98391.94;;;22.61;57.37
53526;BME280;40551;50.478;19.378;2022-08-30T10:46:58;98388.67;;;22.56;57.58
53526;BME280;40551;50.478;19.378;2022-08-30T10:49:36;98388.66;;;22.54;57.89
53526;BME280;40551;50.478;19.378;2022-08-30T10:52:24;98381.30;;;22.63;57.85
53526;BME280;40551;50.478;19.378;2022-08-30T10:55:01;98376.85;;;22.80;57.74
53526;BME280;40551;50.478;19.378;2022-08-30T10:57:36;98374.07;;;23.02;56.92
53526;BME280;40551;50.478;19.378;2022-08-30T11:00:15;98371.75;;;23.09;56.53
53526;BME280;40551;50.478;19.378;2022-08-30T11:03:17;98369.52;;;23.16;56.02
53526;BME280;40551;50.478;19.378;2022-08-30T11:06:20;98367.96;;;23.08;55.89
53526;BME280;40551;50.478;19.378;2022-08-30T11:08:57;98372.01;;;22.99;55.93
53526;BME280;40551;50.478;19.378;2022-08-30T11:11:43;98374.02;;;22.86;56.28
53526;BME280;40551;50.478;19.378;2022-08-30T11:14:23;98374.15;;;22.77;55.11
53526;BME280;40551;50.478;19.378;2022-08-30T11:16:57;98370.76;;;22.74;55.00
53526;BME280;40551;50.478;19.378;2022-08-30T11:19:38;98368.94;;;22.80;55.25
53526;BME280;40551;50.478;19.378;2022-08-30T11:22:15;98369.67;;;22.96;55.78
53526;BME280;40551;50.478;19.378;2022-08-30T11:25:08;98365.80;;;23.07;55.58
53526;BME280;40551;50.478;19.378;2022-08-30T11:27:44;98365.23;;;23.10;55.11
53526;BME280;40551;50.478;19.378;2022-08-30T11:30:51;98365.77;;;22.99;54.78
53526;BME280;40551;50.478;19.378;2022-08-30T11:33:51;98365.55;;;22.79;55.09
53526;BME280;40551;50.478;19.378;2022-08-30T11:39:56;98361.33;;;22.68;55.46
53526;BME280;40551;50.478;19.378;2022-08-30T11:42:37;98359.05;;;22.73;55.01
53526;BME280;40551;50.478;19.378;2022-08-30T11:45:47;98350.77;;;22.78;55.02
53526;BME280;40551;50.478;19.378;2022-08-30T11:48:46;98352.21;;;22.82;55.14
53526;BME280;40551;50.478;19.378;2022-08-30T11:52:00;98351.70;;;22.80;55.67
53526;BME280;40551;50.478;19.378;2022-08-30T11:54:58;98356.23;;;22.75;55.54
53526;BME280;40551;50.478;19.378;2022-08-30T11:57:43;98355.55;;;22.74;55.99
53526;BME280;40551;50.478;19.378;2022-08-30T12:00:31;98354.05;;;22.80;55.38
53526;BME280;40551;50.478;19.378;2022-08-30T12:03:06;98355.09;;;22.93;54.85
53526;BME280;40551;50.478;19.378;2022-08-30T12:06:01;98353.00;;;23.09;54.75
53526;BME280;40551;50.478;19.378;2022-08-30T12:08:55;98348.03;;;23.21;53.24
53526;BME280;40551;50.478;19.378;2022-08-30T12:12:02;98345.63;;;23.24;52.45
53526;BME280;40551;50.478;19.378;2022-08-30T12:14:46;98348.07;;;23.23;52.75
53526;BME280;40551;50.478;19.378;2022-08-30T12:17:51;98349.38;;;23.13;52.87
53526;BME280;40551;50.478;19.378;2022-08-30T12:20:47;98344.64;;;23.05;53.91
53526;BME280;40551;50.478;19.378;2022-08-30T12:23:34;98337.98;;;23.06;53.71
53526;BME280;40551;50.478;19.378;2022-08-30T12:26:19;98331.45;;;23.13;53.78
53526;BME280;40551;50.478;19.378;2022-08-30T12:29:17;98329.89;;;23.25;54.07
53526;BME280;40551;50.478;19.378;2022-08-30T12:31:53;98329.08;;;23.32;52.70
53526;BME280;40551;50.478;19.378;2022-08-30T12:34:30;98324.98;;;23.35;51.45
53526;BME280;40551;50.478;19.378;2022-08-30T12:37:05;98319.23;;;23.35;51.16
53526;BME280;40551;50.478;19.378;2022-08-30T12:39:39;98320.48;;;23.37;50.95
53526;BME280;40551;50.478;19.378;2022-08-30T12:42:16;98315.92;;;23.39;51.03
53526;BME280;40551;50.478;19.378;2022-08-30T12:44:49;98312.23;;;23.42;50.79
53526;BME280;40551;50.478;19.378;2022-08-30T12:47:24;98304.52;;;23.40;50.59
53526;BME280;40551;50.478;19.378;2022-08-30T12:49:57;98300.75;;;23.42;51.51
53526;BME280;40551;50.478;19.378;2022-08-30T12:52:37;98298.08;;;23.49;51.39
53526;BME280;40551;50.478;19.378;2022-08-30T12:55:15;98297.77;;;23.43;51.05
53526;BME280;40551;50.478;19.378;2022-08-30T12:57:59;98294.60;;;23.34;51.34
53526;BME280;40551;50.478;19.378;2022-08-30T13:00:33;98298.77;;;23.24;51.80
53526;BME280;40551;50.478;19.378;2022-08-30T13:05:54;98294.90;;;23.08;51.93
53526;BME280;40551;50.478;19.378;2022-08-30T13:08:30;98292.81;;;22.99;52.58
53526;BME280;40551;50.478;19.378;2022-08-30T13:11:07;98290.59;;;22.96;52.86
53526;BME280;40551;50.478;19.378;2022-08-30T13:13:45;98290.81;;;22.96;53.25
53526;BME280;40551;50.478;19.378;2022-08-30T13:16:25;98288.74;;;22.93;52.73
53526;BME280;40551;50.478;19.378;2022-08-30T13:19:23;98284.89;;;22.84;52.69
53526;BME280;40551;50.478;19.378;2022-08-30T13:21:58;98281.64;;;22.82;53.00
53526;BME280;40551;50.478;19.378;2022-08-30T13:24:30;98286.21;;;22.82;52.70
53526;BME280;40551;50.478;19.378;2022-08-30T13:27:05;98287.80;;;22.81;52.25
53526;BME280;40551;50.478;19.378;2022-08-30T13:40:42;98290.45;;;23.00;52.21
53526;BME280;40551;50.478;19.378;2022-08-30T14:16:16;98274.94;;;22.75;52.69
53526;BME280;40551;50.478;19.378;2022-08-30T14:24:45;98262.79;;;22.53;53.77
53526;BME280;40551;50.478;19.378;2022-08-30T14:27:44;98258.09;;;22.48;52.27
53526;BME280;40551;50.478;19.378;2022-08-30T14:30:34;98254.38;;;22.45;52.26
53526;BME280;40551;50.478;19.378;2022-08-30T14:33:14;98253.93;;;22.48;52.60
53526;BME280;40551;50.478;19.378;2022-08-30T14:36:06;98257.80;;;22.52;52.61